Metz, West Virginia
Current Conditions -  °F | °C
As of 2:53 AM on Saturday 25 Oct 2014 (Local Time) from KCKB Reporting Station
Clear Clear  
Wind Chill: 42°   Ceiling: Unl
Heat Index: 42°   Visibility: 10mi
Dew Point: 38°   Wind: 3mph
Humidity: 85%   Direction: 170°S
Pressure: 30.03"   Gusts: NA
Location:  39.58°N, 80.37°W
Report Text: KCKB 250653Z AUTO 17003KT 10SM CLR 06/03 A3003 RMK AO2 SLP166 T00560033
Loading
Personal Weather Stations






























Interactive Weather Map
Tropical Storm Tracking
New forecast layout! Learn more

10-Day Weather Forecast

Advertisements
Track Severe Weather on mobile